createdAt,value
2022-12-25T00:00:27.084Z,96.30
2022-12-25T00:02:56.934Z,92.17
2022-12-25T00:05:25.534Z,91.80
2022-12-25T00:07:56.428Z,94.33
2022-12-25T00:10:25.684Z,85.77
2022-12-25T00:12:54.172Z,92.37
2022-12-25T00:15:22.955Z,92.77
2022-12-25T00:17:51.462Z,95.67
2022-12-25T00:20:21.339Z,88.57
2022-12-25T00:22:49.825Z,91.07
2022-12-25T00:25:18.387Z,93.83
2022-12-25T00:27:46.951Z,90.77
2022-12-25T00:30:15.772Z,91.33
2022-12-25T00:32:44.187Z,89.27
2022-12-25T00:35:12.991Z,89.07
2022-12-25T00:37:43.135Z,89.90
2022-12-25T00:40:12.151Z,86.27
2022-12-25T00:42:40.591Z,85.37
2022-12-25T00:45:09.976Z,84.50
2022-12-25T00:47:38.567Z,79.17
2022-12-25T00:50:08.479Z,82.60
2022-12-25T00:52:36.905Z,82.60
2022-12-25T00:55:07.296Z,82.03
2022-12-25T00:57:35.710Z,80.70
2022-12-25T01:00:04.201Z,82.27
2022-12-25T01:02:33.142Z,81.13
2022-12-25T01:05:01.729Z,71.73
2022-12-25T01:07:30.186Z,72.77
2022-12-25T01:10:30.614Z,68.00
2022-12-25T01:13:00.352Z,72.93
2022-12-25T01:15:28.784Z,68.50
2022-12-25T01:17:57.197Z,70.30
2022-12-25T01:20:25.522Z,70.17
2022-12-25T01:22:54.188Z,71.73
2022-12-25T01:25:22.610Z,72.53
2022-12-25T01:27:51.154Z,73.00
2022-12-25T01:30:21.210Z,73.20
2022-12-25T01:32:49.549Z,73.00
2022-12-25T01:35:18.341Z,76.33
2022-12-25T01:37:46.849Z,74.87
2022-12-25T01:40:15.327Z,71.97
2022-12-25T01:42:44.259Z,71.80
2022-12-25T01:45:39.040Z,70.07
2022-12-25T01:48:15.716Z,70.00
2022-12-25T01:50:47.382Z,67.90
2022-12-25T01:53:15.996Z,69.27
2022-12-25T01:55:45.794Z,73.17
2022-12-25T01:58:14.358Z,71.37
2022-12-25T02:00:44.245Z,70.73
2022-12-25T02:03:12.764Z,70.90
2022-12-25T02:05:41.733Z,73.43
2022-12-25T02:08:12.861Z,71.60
2022-12-25T02:10:43.237Z,70.90
2022-12-25T02:13:12.839Z,69.90
2022-12-25T02:15:53.952Z,68.90
2022-12-25T02:18:29.599Z,69.07
2022-12-25T02:21:43.758Z,71.93
2022-12-25T02:24:37.475Z,70.30
2022-12-25T02:27:15.625Z,69.60
2022-12-25T02:29:53.278Z,67.50
2022-12-25T02:32:28.122Z,73.90
2022-12-25T02:35:02.281Z,79.20
2022-12-25T02:37:38.189Z,83.87
2022-12-25T02:40:10.984Z,78.30
2022-12-25T02:43:04.085Z,77.07
2022-12-25T02:45:54.807Z,78.47
2022-12-25T02:48:43.822Z,77.00
2022-12-25T02:51:33.630Z,77.90
2022-12-25T02:54:24.222Z,80.93
2022-12-25T02:57:12.842Z,78.87
2022-12-25T03:00:00.917Z,77.97
2022-12-25T03:02:51.508Z,75.63
2022-12-25T03:05:42.270Z,78.90
2022-12-25T03:08:14.702Z,79.97
2022-12-25T03:11:06.208Z,77.30
2022-12-25T03:13:39.206Z,74.90
2022-12-25T03:16:26.565Z,76.37
2022-12-25T03:18:58.516Z,74.47
2022-12-25T03:21:59.040Z,73.97
2022-12-25T03:24:44.823Z,75.80
2022-12-25T03:27:13.241Z,76.70
2022-12-25T03:30:09.063Z,73.77
2022-12-25T03:32:43.977Z,79.60
2022-12-25T03:35:25.825Z,77.50
2022-12-25T03:38:21.863Z,76.07
2022-12-25T03:41:20.033Z,73.80
2022-12-25T03:44:12.571Z,80.90
2022-12-25T03:47:05.941Z,75.97
2022-12-25T03:49:58.151Z,78.87
2022-12-25T03:52:47.626Z,74.00
2022-12-25T03:55:36.155Z,79.50
2022-12-25T03:58:21.969Z,75.53
2022-12-25T04:01:07.677Z,80.20
2022-12-25T04:03:53.242Z,79.50
2022-12-25T04:06:38.847Z,81.10
2022-12-25T04:09:26.240Z,79.80
2022-12-25T04:12:12.117Z,81.50
2022-12-25T04:14:57.915Z,79.40
2022-12-25T04:17:43.709Z,81.40
2022-12-25T04:20:30.211Z,77.10
2022-12-25T04:23:16.145Z,84.40
2022-12-25T04:26:03.395Z,79.03
2022-12-25T04:28:49.136Z,79.83
2022-12-25T04:31:34.965Z,79.87
2022-12-25T04:34:32.867Z,79.47
2022-12-25T04:37:01.291Z,79.27
2022-12-25T04:39:29.766Z,79.80
2022-12-25T04:42:01.069Z,76.80
2022-12-25T04:44:29.513Z,77.30
2022-12-25T04:47:11.741Z,74.57
2022-12-25T04:49:40.521Z,79.40
2022-12-25T04:52:09.001Z,78.30
2022-12-25T04:54:55.843Z,79.67
2022-12-25T04:57:43.971Z,76.30
2022-12-25T05:00:13.216Z,80.27
2022-12-25T05:02:41.774Z,75.70
2022-12-25T05:05:10.372Z,75.97
2022-12-25T05:07:38.822Z,75.37
2022-12-25T05:10:08.502Z,74.97
2022-12-25T05:12:36.814Z,73.30
2022-12-25T05:15:07.231Z,77.23
2022-12-25T05:17:35.816Z,77.07
2022-12-25T05:20:04.522Z,75.57
2022-12-25T05:22:32.873Z,77.20
2022-12-25T05:25:01.303Z,72.20
2022-12-25T05:27:29.580Z,74.00
2022-12-25T05:29:57.986Z,76.03
2022-12-25T05:32:27.855Z,70.70
2022-12-25T05:34:56.125Z,69.17
2022-12-25T05:37:24.512Z,73.67
2022-12-25T05:39:52.967Z,71.53
2022-12-25T05:42:21.514Z,72.80
2022-12-25T05:44:49.797Z,71.20
2022-12-25T05:47:18.234Z,73.03
2022-12-25T05:49:47.994Z,70.70
2022-12-25T05:52:16.428Z,68.90
2022-12-25T05:54:44.880Z,69.43
2022-12-25T05:57:13.297Z,72.27
2022-12-25T05:59:41.629Z,69.80
2022-12-25T06:02:10.091Z,69.57
2022-12-25T06:04:38.611Z,72.37
2022-12-25T06:07:08.489Z,74.30
2022-12-25T06:09:36.789Z,71.73
2022-12-25T06:12:05.511Z,76.87
2022-12-25T06:14:34.057Z,76.50
2022-12-25T06:17:02.478Z,72.40
2022-12-25T06:19:30.860Z,73.50
2022-12-25T06:21:59.325Z,71.87
2022-12-25T06:24:29.127Z,69.00
2022-12-25T06:26:57.337Z,71.57
2022-12-25T06:29:25.889Z,72.27
2022-12-25T06:31:57.309Z,73.37
2022-12-25T06:34:27.127Z,69.27
2022-12-25T06:36:55.560Z,72.60
2022-12-25T06:39:25.629Z,71.50
2022-12-25T06:41:55.832Z,68.27
2022-12-25T06:44:24.446Z,67.93
2022-12-25T06:46:54.481Z,63.97
2022-12-25T06:49:23.236Z,69.27
2022-12-25T06:51:51.530Z,71.27
2022-12-25T06:54:19.937Z,69.27
2022-12-25T06:56:48.759Z,65.80
2022-12-25T06:59:18.530Z,65.00
2022-12-25T07:01:48.818Z,68.17
2022-12-25T07:04:21.009Z,66.97
2022-12-25T07:06:49.407Z,66.67
2022-12-25T07:09:17.802Z,67.40
2022-12-25T07:11:46.235Z,67.63
2022-12-25T07:14:23.776Z,67.10
2022-12-25T07:16:53.115Z,67.10
2022-12-25T07:19:21.615Z,68.83
2022-12-25T07:21:50.070Z,68.60
2022-12-25T07:24:20.596Z,63.70
2022-12-25T07:26:49.054Z,68.17
2022-12-25T07:29:19.698Z,63.60
2022-12-25T07:31:48.496Z,64.67
2022-12-25T07:34:18.725Z,67.70
2022-12-25T07:36:47.202Z,63.97
2022-12-25T07:39:16.351Z,62.83
2022-12-25T07:41:44.853Z,65.20
2022-12-25T07:44:17.914Z,65.83
2022-12-25T07:46:46.535Z,62.03
2022-12-25T07:49:15.022Z,62.07
2022-12-25T07:51:43.495Z,60.30
2022-12-25T07:54:11.914Z,62.13
2022-12-25T07:56:40.319Z,61.37
2022-12-25T07:59:08.625Z,58.60
2022-12-25T08:01:38.549Z,63.15
2022-12-25T08:04:08.301Z,68.50
2022-12-25T08:06:37.169Z,69.37
2022-12-25T08:09:07.481Z,69.40
2022-12-25T08:11:35.829Z,68.00
2022-12-25T08:14:07.197Z,62.15
2022-12-25T08:16:36.190Z,64.40
2022-12-25T08:19:06.016Z,61.17
2022-12-25T08:21:34.454Z,63.33
2022-12-25T08:24:03.276Z,63.37
2022-12-25T08:26:31.993Z,62.10
2022-12-25T08:29:00.332Z,60.60
2022-12-25T08:31:30.289Z,55.30
2022-12-25T08:33:59.611Z,56.27
2022-12-25T08:36:29.602Z,56.50
2022-12-25T08:39:02.562Z,55.83
2022-12-25T08:41:32.197Z,55.37
2022-12-25T08:44:00.735Z,54.80
2022-12-25T08:46:29.333Z,53.20
2022-12-25T08:48:58.016Z,53.43
2022-12-25T08:51:28.275Z,53.73
2022-12-25T08:54:01.029Z,51.67
2022-12-25T08:56:29.793Z,56.13
2022-12-25T08:58:58.160Z,54.00
2022-12-25T09:01:26.668Z,52.30
2022-12-25T09:03:55.140Z,54.30
2022-12-25T09:06:23.703Z,54.50
2022-12-25T09:08:53.470Z,52.83
2022-12-25T09:11:22.436Z,53.80
2022-12-25T09:13:51.090Z,51.60
2022-12-25T09:16:22.180Z,51.97
2022-12-25T09:18:51.095Z,54.70
2022-12-25T09:21:20.549Z,53.80
2022-12-25T09:23:48.966Z,53.75
2022-12-25T09:26:20.560Z,54.30
2022-12-25T09:28:52.406Z,53.70
2022-12-25T09:31:21.934Z,48.37
2022-12-25T09:33:50.573Z,46.03
2022-12-25T09:36:21.350Z,49.93
2022-12-25T09:38:49.887Z,46.93
2022-12-25T09:41:28.103Z,43.83
2022-12-25T09:44:02.086Z,47.20
2022-12-25T09:46:38.021Z,46.93
2022-12-25T09:49:13.339Z,48.00
2022-12-25T09:51:44.868Z,46.37
2022-12-25T09:54:20.677Z,45.80
2022-12-25T09:56:50.436Z,47.00
2022-12-25T09:59:25.275Z,45.80
2022-12-25T10:02:12.309Z,47.30
2022-12-25T10:04:56.808Z,44.73
2022-12-25T10:07:31.654Z,42.73
2022-12-25T10:10:15.261Z,44.93
2022-12-25T10:12:54.224Z,47.80
2022-12-25T10:15:32.726Z,49.73
2022-12-25T10:18:28.333Z,52.30
2022-12-25T10:20:58.659Z,49.00
2022-12-25T10:23:30.219Z,51.80
2022-12-25T10:25:58.721Z,53.20
2022-12-25T10:28:35.426Z,51.73
2022-12-25T10:31:18.696Z,50.30
2022-12-25T10:33:47.230Z,51.00
2022-12-25T10:36:19.310Z,47.50
2022-12-25T10:38:47.960Z,48.87
2022-12-25T10:41:26.472Z,48.47
2022-12-25T10:43:58.407Z,50.30
2022-12-25T10:46:29.533Z,52.30
2022-12-25T10:49:01.225Z,49.57
2022-12-25T10:51:34.361Z,45.73
2022-12-25T10:54:03.915Z,51.83
2022-12-25T10:56:32.389Z,58.60
2022-12-25T10:59:11.725Z,57.30
2022-12-25T11:01:40.290Z,59.37
2022-12-25T11:04:18.422Z,55.27
2022-12-25T11:06:56.634Z,51.60
2022-12-25T11:09:25.236Z,47.67
2022-12-25T11:11:53.777Z,47.10
2022-12-25T11:14:24.241Z,48.93
2022-12-25T11:16:52.826Z,48.47
2022-12-25T11:19:28.241Z,45.53
2022-12-25T11:21:58.275Z,47.10
2022-12-25T11:24:28.197Z,45.00
2022-12-25T11:26:59.280Z,46.60
2022-12-25T11:29:38.355Z,44.50
2022-12-25T11:32:12.647Z,48.27
2022-12-25T11:34:46.289Z,45.27
2022-12-25T11:37:20.019Z,44.47
2022-12-25T11:39:48.612Z,45.90
2022-12-25T11:42:23.584Z,42.20
2022-12-25T11:45:00.395Z,43.63
2022-12-25T11:47:35.991Z,44.73
2022-12-25T11:50:08.099Z,41.63
2022-12-25T11:52:39.656Z,38.87
2022-12-25T11:55:16.296Z,38.97
2022-12-25T11:57:48.740Z,38.37
2022-12-25T12:00:19.735Z,37.80
2022-12-25T12:02:55.207Z,39.80
2022-12-25T12:05:27.712Z,41.17
2022-12-25T12:08:00.004Z,41.77
2022-12-25T12:10:38.562Z,39.13
2022-12-25T12:13:34.805Z,40.60
2022-12-25T12:16:06.076Z,39.70
2022-12-25T12:18:35.766Z,39.03
2022-12-25T12:21:06.871Z,41.93
2022-12-25T12:23:38.133Z,40.17
2022-12-25T12:26:06.816Z,39.10
2022-12-25T12:28:45.876Z,40.10
2022-12-25T12:31:16.114Z,40.10
2022-12-25T12:33:52.977Z,39.50
2022-12-25T12:36:34.604Z,38.83
2022-12-25T12:39:05.171Z,38.57
2022-12-25T12:41:46.371Z,42.17
2022-12-25T12:44:17.601Z,39.23
2022-12-25T12:46:54.796Z,40.60
2022-12-25T12:49:26.002Z,40.13
2022-12-25T12:52:06.317Z,40.80
2022-12-25T12:54:50.783Z,39.83
2022-12-25T12:57:25.351Z,39.77
2022-12-25T12:59:53.716Z,40.13
2022-12-25T13:02:48.117Z,39.80
2022-12-25T13:05:22.363Z,40.33
2022-12-25T13:08:02.188Z,38.67
2022-12-25T13:10:34.110Z,39.97
2022-12-25T13:13:08.059Z,38.10
2022-12-25T13:15:36.844Z,39.37
2022-12-25T13:18:10.766Z,40.33
2022-12-25T13:20:54.845Z,42.47
2022-12-25T13:23:28.031Z,44.90
2022-12-25T13:25:57.311Z,46.80
2022-12-25T13:28:27.823Z,44.50
2022-12-25T13:31:03.627Z,43.40
2022-12-25T13:33:33.960Z,47.03
2022-12-25T13:36:02.605Z,45.60
2022-12-25T13:38:31.119Z,46.40
2022-12-25T13:41:17.408Z,46.00
2022-12-25T13:43:46.968Z,46.57
2022-12-25T13:46:16.272Z,46.07
2022-12-25T13:48:46.038Z,46.27
2022-12-25T13:51:17.813Z,49.97
2022-12-25T13:53:46.230Z,47.07
2022-12-25T13:56:16.991Z,46.53
2022-12-25T13:58:48.578Z,45.47
2022-12-25T14:01:18.717Z,47.47
2022-12-25T14:03:49.628Z,44.50
2022-12-25T14:06:21.426Z,46.93
2022-12-25T14:08:50.811Z,47.40
2022-12-25T14:11:22.276Z,49.70
2022-12-25T14:13:55.321Z,47.80
2022-12-25T14:16:24.807Z,46.63
2022-12-25T14:18:56.681Z,49.43
2022-12-25T14:21:29.770Z,46.00
2022-12-25T14:23:58.485Z,47.10
2022-12-25T14:26:29.196Z,47.37
2022-12-25T14:29:12.215Z,46.30
2022-12-25T14:31:45.834Z,45.30
2022-12-25T14:34:18.912Z,44.90
2022-12-25T14:36:47.637Z,42.77
2022-12-25T14:39:31.070Z,44.70
2022-12-25T14:42:00.524Z,44.10
2022-12-25T14:44:34.805Z,43.33
2022-12-25T14:47:14.896Z,46.13
2022-12-25T14:49:45.467Z,44.50
2022-12-25T14:52:19.860Z,46.60
2022-12-25T14:54:50.621Z,45.70
2022-12-25T14:57:25.422Z,44.40
2022-12-25T15:00:06.812Z,46.20
2022-12-25T15:02:41.675Z,44.37
2022-12-25T15:05:34.524Z,44.87
2022-12-25T15:08:20.309Z,45.53
2022-12-25T15:11:04.529Z,43.93
2022-12-25T15:13:34.345Z,44.90
2022-12-25T15:16:07.598Z,43.07
2022-12-25T15:18:38.668Z,44.70
2022-12-25T15:21:12.501Z,45.57
2022-12-25T15:23:40.848Z,46.43
2022-12-25T15:26:13.681Z,46.10
2022-12-25T15:28:42.632Z,45.70
2022-12-25T15:31:21.248Z,46.13
2022-12-25T15:33:49.733Z,45.63
2022-12-25T15:36:19.599Z,45.63
2022-12-25T15:38:47.920Z,47.80
2022-12-25T15:41:32.891Z,42.77
2022-12-25T15:44:01.635Z,46.40
2022-12-25T15:46:30.524Z,46.37
2022-12-25T15:48:59.125Z,44.60
2022-12-25T15:51:28.916Z,46.57
2022-12-25T15:53:58.485Z,46.70
2022-12-25T15:56:27.389Z,44.40
2022-12-25T15:58:55.928Z,42.83
2022-12-25T16:01:24.454Z,40.60
2022-12-25T16:03:53.189Z,41.03
2022-12-25T16:06:21.629Z,41.30
2022-12-25T16:08:51.440Z,43.03
2022-12-25T16:11:19.876Z,45.67
2022-12-25T16:13:48.257Z,44.13
2022-12-25T16:16:16.721Z,47.70
2022-12-25T16:18:47.777Z,45.70
2022-12-25T16:21:19.132Z,47.60
2022-12-25T16:23:47.518Z,47.70
2022-12-25T16:26:17.445Z,47.47
2022-12-25T16:28:45.797Z,47.23
2022-12-25T16:31:14.151Z,43.60
2022-12-25T16:33:42.589Z,45.27
2022-12-25T16:36:11.033Z,45.80
2022-12-25T16:38:39.555Z,47.60
2022-12-25T16:41:09.297Z,43.07
2022-12-25T16:43:39.054Z,47.33
2022-12-25T16:46:11.560Z,46.30
2022-12-25T16:48:39.936Z,47.40
2022-12-25T16:51:11.671Z,48.90
2022-12-25T16:53:40.598Z,54.10
2022-12-25T16:56:10.395Z,53.50
2022-12-25T16:58:40.423Z,51.13
2022-12-25T17:01:10.061Z,47.70
2022-12-25T17:03:39.169Z,47.40
2022-12-25T17:06:15.223Z,46.07
2022-12-25T17:08:44.691Z,45.87
2022-12-25T17:11:13.500Z,49.60
2022-12-25T17:13:47.712Z,48.80
2022-12-25T17:16:17.514Z,47.30
2022-12-25T17:18:45.952Z,51.93
2022-12-25T17:21:15.643Z,47.77
2022-12-25T17:23:45.108Z,48.93
2022-12-25T17:26:13.858Z,48.17
2022-12-25T17:28:43.685Z,48.93
2022-12-25T17:31:14.710Z,47.40
2022-12-25T17:33:44.678Z,53.43
2022-12-25T17:36:20.203Z,48.37
2022-12-25T17:38:49.377Z,51.57
2022-12-25T17:41:19.576Z,55.00
2022-12-25T17:43:49.771Z,58.90
2022-12-25T17:46:20.182Z,60.53
2022-12-25T17:48:50.091Z,57.30
2022-12-25T17:51:22.263Z,47.10
2022-12-25T17:53:52.731Z,49.17
2022-12-25T17:56:22.028Z,47.20
2022-12-25T17:58:54.348Z,47.90
2022-12-25T18:01:24.018Z,46.33
2022-12-25T18:03:52.965Z,45.80
2022-12-25T18:06:24.751Z,48.07
2022-12-25T18:08:55.097Z,46.70
2022-12-25T18:11:27.659Z,49.00
2022-12-25T18:13:59.736Z,47.17
2022-12-25T18:16:29.110Z,47.40
2022-12-25T18:18:59.603Z,47.77
2022-12-25T18:21:28.722Z,47.40
2022-12-25T18:23:57.460Z,47.80
2022-12-25T18:26:28.790Z,50.90
2022-12-25T18:28:58.732Z,48.00
2022-12-25T18:31:30.316Z,47.30
2022-12-25T18:33:59.945Z,43.43
2022-12-25T18:36:29.565Z,44.40
2022-12-25T18:38:59.175Z,45.70
2022-12-25T18:41:30.273Z,46.00
2022-12-25T18:44:00.984Z,45.97
2022-12-25T18:46:29.767Z,44.30
2022-12-25T18:48:58.491Z,44.40
2022-12-25T18:51:34.751Z,46.20
2022-12-25T18:54:05.455Z,40.70
2022-12-25T18:56:34.173Z,43.53
2022-12-25T18:59:03.984Z,42.77
2022-12-25T19:01:35.537Z,41.43
2022-12-25T19:04:05.886Z,43.20
2022-12-25T19:06:34.820Z,43.23
2022-12-25T19:09:09.259Z,42.57
2022-12-25T19:11:44.045Z,42.33
2022-12-25T19:14:16.495Z,43.47
2022-12-25T19:16:44.996Z,41.00
2022-12-25T19:19:13.516Z,42.37
2022-12-25T19:21:42.304Z,42.87
2022-12-25T19:24:10.905Z,44.70
2022-12-25T19:26:39.317Z,43.27
2022-12-25T19:29:07.737Z,43.03
2022-12-25T19:31:38.367Z,43.83
2022-12-25T19:34:06.840Z,44.20
2022-12-25T19:36:35.830Z,46.10
2022-12-25T19:39:04.588Z,46.17
2022-12-25T19:41:33.359Z,47.33
2022-12-25T19:44:02.050Z,48.07
2022-12-25T19:46:33.123Z,46.00
2022-12-25T19:49:04.460Z,45.13
2022-12-25T19:51:34.512Z,45.03
2022-12-25T19:54:03.666Z,46.93
2022-12-25T19:56:32.486Z,46.97
2022-12-25T19:59:01.449Z,46.77
2022-12-25T20:01:31.199Z,50.03
2022-12-25T20:04:00.174Z,48.50
2022-12-25T20:06:32.106Z,48.50
2022-12-25T20:09:03.158Z,44.80
2022-12-25T20:11:33.097Z,42.97
2022-12-25T20:14:01.862Z,45.63
2022-12-25T20:16:30.652Z,45.63
2022-12-25T20:18:59.898Z,46.07
2022-12-25T20:21:30.122Z,45.70
2022-12-25T20:23:58.790Z,47.77
2022-12-25T20:26:28.913Z,46.30
2022-12-25T20:28:58.222Z,49.30
2022-12-25T20:31:28.613Z,47.93
2022-12-25T20:33:58.703Z,48.43
2022-12-25T20:36:32.780Z,49.30
2022-12-25T20:39:09.635Z,50.90
2022-12-25T20:41:38.924Z,48.90
2022-12-25T20:44:08.579Z,48.97
2022-12-25T20:46:37.996Z,48.33
2022-12-25T20:49:06.491Z,51.67
2022-12-25T20:51:35.157Z,51.63
2022-12-25T20:54:09.092Z,51.40
2022-12-25T20:56:38.279Z,53.80
2022-12-25T20:59:06.885Z,50.73
2022-12-25T21:01:35.429Z,49.97
2022-12-25T21:04:04.042Z,52.10
2022-12-25T21:06:32.600Z,50.87
2022-12-25T21:09:01.275Z,54.60
2022-12-25T21:11:31.569Z,51.77
2022-12-25T21:14:00.049Z,52.33
2022-12-25T21:16:28.908Z,53.83
2022-12-25T21:18:57.450Z,50.83
2022-12-25T21:21:26.277Z,57.03
2022-12-25T21:23:56.741Z,52.13
2022-12-25T21:26:26.981Z,52.83
2022-12-25T21:29:00.245Z,53.07
2022-12-25T21:31:29.408Z,52.87
2022-12-25T21:33:57.738Z,52.20
2022-12-25T21:36:27.837Z,53.53
2022-12-25T21:38:58.786Z,53.40
2022-12-25T21:41:28.449Z,50.30
2022-12-25T21:43:58.659Z,50.70
2022-12-25T21:46:28.160Z,51.30
2022-12-25T21:48:57.391Z,52.60
2022-12-25T21:51:44.980Z,51.70
2022-12-25T21:54:14.387Z,51.07
2022-12-25T21:56:45.650Z,51.07
2022-12-25T21:59:17.787Z,47.90
2022-12-25T22:01:46.763Z,50.37
2022-12-25T22:04:17.087Z,50.20
2022-12-25T22:07:04.632Z,49.30
2022-12-25T22:09:33.590Z,49.17
2022-12-25T22:12:20.240Z,49.57
2022-12-25T22:14:55.251Z,46.73
2022-12-25T22:17:43.597Z,47.87
2022-12-25T22:20:15.507Z,48.20
2022-12-25T22:22:44.638Z,50.37
2022-12-25T22:25:14.106Z,50.60
2022-12-25T22:27:44.311Z,48.30
2022-12-25T22:30:16.214Z,53.70
2022-12-25T22:32:45.088Z,57.00
2022-12-25T22:35:14.566Z,53.40
2022-12-25T22:37:43.887Z,51.03
2022-12-25T22:40:14.045Z,50.20
2022-12-25T22:42:42.502Z,46.43
2022-12-25T22:45:13.394Z,47.37
2022-12-25T22:47:42.387Z,45.57
2022-12-25T22:50:12.294Z,48.37
2022-12-25T22:52:41.830Z,47.07
2022-12-25T22:55:11.294Z,47.77
2022-12-25T22:57:39.721Z,49.00
2022-12-25T23:00:09.858Z,47.97
2022-12-25T23:02:39.920Z,48.00
2022-12-25T23:05:09.339Z,47.67
2022-12-25T23:07:37.732Z,47.50
2022-12-25T23:10:07.394Z,48.03
2022-12-25T23:12:53.227Z,47.87
2022-12-25T23:15:21.626Z,45.67
2022-12-25T23:18:08.817Z,46.50
2022-12-25T23:20:55.851Z,43.77
2022-12-25T23:23:42.035Z,45.40
2022-12-25T23:26:10.633Z,46.90
2022-12-25T23:28:57.371Z,44.37
2022-12-25T23:31:29.953Z,47.57
2022-12-25T23:34:00.173Z,47.20
2022-12-25T23:36:29.089Z,47.23
2022-12-25T23:39:00.384Z,49.27
2022-12-25T23:41:33.380Z,48.47
2022-12-25T23:44:01.849Z,46.17
2022-12-25T23:46:30.310Z,48.70
2022-12-25T23:49:00.198Z,49.30
2022-12-25T23:51:28.676Z,48.40
2022-12-25T23:53:57.128Z,49.33
2022-12-25T23:56:25.413Z,49.80
2022-12-25T23:58:54.019Z,46.57
